Time;durP1;ratioP1;P1;durP2;ratioP2;P2;SDS_P1;SDS_P2;PMS_P1;PMS_P2;Temp;Humidity;BMP_temperature;BMP_pressure;BME280_temperature;BME280_humidity;BME280_pressure;Samples;Min_cycle;Max_cycle;Signal;HPM_P1;HPM_P2
2020/12/31 00:02:09;;;;;;;15.17;11.40;;;4.70;99.90;;;;;;5111953;28;20542;-28
2020/12/31 00:04:38;;;;;;;13.60;9.93;;;4.70;99.90;;;;;;5112244;28;20591;-27
2020/12/31 00:07:07;;;;;;;17.00;11.53;;;4.70;99.90;;;;;;5112167;28;20435;-28
2020/12/31 00:09:35;;;;;;;13.70;10.73;;;4.70;99.90;;;;;;5112729;28;20469;-27
2020/12/31 00:12:02;;;;;;;16.00;10.80;;;4.60;99.90;;;;;;5115967;28;20455;-27
2020/12/31 00:14:29;;;;;;;18.30;12.30;;;4.60;99.90;;;;;;5115516;28;20462;-28
2020/12/31 00:16:56;;;;;;;17.57;9.97;;;4.60;99.90;;;;;;5114160;28;20441;-27
2020/12/31 00:19:23;;;;;;;10.17;8.13;;;4.70;99.90;;;;;;5115168;28;20442;-28
2020/12/31 00:21:51;;;;;;;11.00;8.10;;;4.70;99.90;;;;;;5115840;28;20431;-27
2020/12/31 00:24:18;;;;;;;6.83;6.17;;;4.80;99.90;;;;;;5115528;28;20435;-28
2020/12/31 00:26:46;;;;;;;6.90;6.30;;;4.70;99.90;;;;;;5114684;28;20538;-26
2020/12/31 00:29:14;;;;;;;6.80;6.20;;;4.60;99.90;;;;;;5115114;28;21283;-28
2020/12/31 00:31:40;;;;;;;6.70;6.03;;;4.60;99.90;;;;;;5114798;28;20427;-28
2020/12/31 00:34:07;;;;;;;6.50;5.90;;;4.60;99.90;;;;;;5113789;28;20497;-28
2020/12/31 00:36:34;;;;;;;6.30;5.80;;;4.70;99.90;;;;;;5114559;28;20447;-28
2020/12/31 00:39:01;;;;;;;7.00;6.40;;;4.70;99.90;;;;;;5114490;28;20480;-28
2020/12/31 00:41:29;;;;;;;6.20;5.60;;;4.70;99.90;;;;;;5114764;28;20450;-28
2020/12/31 00:44:01;;;;;;;7.30;6.60;;;4.70;99.90;;;;;;5114503;28;20439;-29
2020/12/31 00:46:28;;;;;;;7.23;6.63;;;4.80;99.90;;;;;;5114020;28;20443;-27
2020/12/31 00:48:56;;;;;;;9.37;6.97;;;4.80;99.90;;;;;;5112455;28;20577;-28
2020/12/31 00:51:23;;;;;;;7.90;7.20;;;4.80;99.90;;;;;;5111843;28;20431;-28
2020/12/31 00:53:49;;;;;;;7.13;6.43;;;4.80;99.90;;;;;;5114674;28;20478;-27
2020/12/31 00:56:20;;;;;;;8.53;7.70;;;4.80;99.90;;;;;;5113590;28;20482;-29
2020/12/31 00:58:48;;;;;;;9.53;8.40;;;4.80;99.90;;;;;;5112928;28;21110;-28
2020/12/31 01:01:16;;;;;;;7.60;6.97;;;4.80;99.90;;;;;;5115320;28;20435;-27
2020/12/31 01:03:43;;;;;;;6.60;6.00;;;4.80;99.90;;;;;;5112929;28;20435;-29
2020/12/31 01:06:12;;;;;;;6.57;5.73;;;4.80;99.90;;;;;;5112510;28;20788;-29
2020/12/31 01:08:39;;;;;;;7.13;6.43;;;4.80;99.90;;;;;;5114350;28;20534;-28
2020/12/31 01:11:06;;;;;;;7.10;6.50;;;4.90;99.90;;;;;;5096314;28;20539;-28
2020/12/31 01:13:35;;;;;;;7.03;6.50;;;4.90;99.90;;;;;;5112954;27;20466;-28
2020/12/31 01:16:03;;;;;;;6.53;5.87;;;4.80;99.90;;;;;;5113989;28;20431;-28
2020/12/31 01:18:29;;;;;;;6.03;5.50;;;4.80;99.90;;;;;;5114604;27;20432;-27
2020/12/31 01:20:56;;;;;;;8.40;7.60;;;4.80;99.90;;;;;;5113893;28;20500;-29
2020/12/31 01:23:22;;;;;;;6.43;5.83;;;4.80;99.90;;;;;;5115467;28;20474;-28
2020/12/31 01:25:51;;;;;;;6.20;5.67;;;4.70;99.90;;;;;;5115740;27;20780;-30
2020/12/31 01:28:18;;;;;;;7.50;6.80;;;4.70;99.90;;;;;;5113952;28;20427;-27
2020/12/31 01:30:44;;;;;;;6.07;5.60;;;4.60;99.90;;;;;;5114249;28;21021;-27
2020/12/31 01:33:12;;;;;;;7.47;6.70;;;4.40;99.90;;;;;;5114917;28;20435;-27
2020/12/31 01:35:39;;;;;;;6.40;5.80;;;4.20;99.90;;;;;;5113292;28;20427;-29
2020/12/31 01:38:05;;;;;;;6.33;5.73;;;4.20;99.90;;;;;;5114614;28;20439;-28
2020/12/31 01:40:32;;;;;;;6.40;5.80;;;4.30;99.90;;;;;;5114417;28;20601;-28
2020/12/31 01:42:58;;;;;;;6.17;5.60;;;4.30;99.90;;;;;;5113653;28;20543;-28
2020/12/31 01:45:25;;;;;;;7.50;6.80;;;4.30;99.90;;;;;;5114027;28;20434;-28
2020/12/31 01:47:52;;;;;;;6.43;5.83;;;4.30;99.90;;;;;;5114764;28;20459;-29
2020/12/31 01:50:19;;;;;;;6.67;6.07;;;4.20;99.90;;;;;;5113794;28;20502;-27
2020/12/31 01:52:47;;;;;;;7.90;6.27;;;4.20;99.90;;;;;;5113838;28;20487;-27
2020/12/31 01:55:14;;;;;;;6.90;6.30;;;4.00;99.90;;;;;;5114293;28;20501;-27
2020/12/31 01:57:42;;;;;;;7.70;6.93;;;3.90;99.90;;;;;;5113514;28;20492;-30
2020/12/31 02:00:10;;;;;;;6.83;6.23;;;3.80;99.90;;;;;;5113389;27;20456;-27
2020/12/31 02:02:39;;;;;;;7.47;6.77;;;3.70;99.90;;;;;;5114347;28;20435;-27
2020/12/31 02:05:06;;;;;;;7.30;6.60;;;3.70;99.90;;;;;;5111906;28;20435;-27
2020/12/31 02:07:35;;;;;;;7.23;6.53;;;3.60;99.90;;;;;;5112474;28;20483;-28
2020/12/31 02:10:03;;;;;;;8.10;6.93;;;3.60;99.90;;;;;;5113512;28;20481;-28
2020/12/31 02:12:32;;;;;;;7.63;7.03;;;3.60;99.90;;;;;;5113828;28;20559;-27
2020/12/31 02:14:59;;;;;;;8.77;7.90;;;3.60;99.90;;;;;;5112961;28;20520;-27
2020/12/31 02:17:26;;;;;;;7.40;6.83;;;3.60;99.90;;;;;;5114345;28;20439;-27
2020/12/31 02:19:52;;;;;;;8.83;7.93;;;3.60;99.90;;;;;;5113406;28;20541;-27
2020/12/31 02:22:19;;;;;;;9.43;8.53;;;3.50;99.90;;;;;;5113614;28;20470;-27
2020/12/31 02:24:46;;;;;;;7.87;7.00;;;3.50;99.90;;;;;;5112515;28;20454;-27
2020/12/31 02:27:14;;;;;;;8.10;7.37;;;3.50;99.90;;;;;;5113821;28;20467;-27
2020/12/31 02:29:40;;;;;;;9.00;8.03;;;3.40;99.90;;;;;;5113589;28;20447;-27
2020/12/31 02:32:07;;;;;;;9.13;8.30;;;3.40;99.90;;;;;;5112638;28;20496;-27
2020/12/31 02:34:34;;;;;;;13.30;9.13;;;3.30;99.90;;;;;;5112261;28;20940;-27
2020/12/31 02:37:00;;;;;;;11.27;8.33;;;3.30;99.90;;;;;;5113447;28;20454;-28
2020/12/31 02:39:27;;;;;;;9.27;8.10;;;3.20;99.90;;;;;;5113033;28;20459;-27
2020/12/31 02:41:54;;;;;;;9.80;8.00;;;3.10;99.90;;;;;;5112834;28;20442;-29
2020/12/31 02:44:21;;;;;;;8.37;7.57;;;3.00;99.90;;;;;;5112878;28;20492;-30
2020/12/31 02:46:47;;;;;;;10.63;9.30;;;2.90;99.90;;;;;;5112349;28;20887;-30
2020/12/31 02:49:14;;;;;;;12.03;10.03;;;2.80;99.90;;;;;;5112150;28;20514;-27
2020/12/31 02:51:41;;;;;;;10.00;9.00;;;2.80;99.90;;;;;;5112774;28;20510;-28
2020/12/31 02:54:08;;;;;;;9.90;8.90;;;2.70;99.90;;;;;;5111395;28;20505;-29
2020/12/31 02:56:35;;;;;;;9.50;8.10;;;2.60;99.90;;;;;;5111544;28;21163;-29
2020/12/31 02:59:02;;;;;;;8.67;7.77;;;2.60;99.90;;;;;;5112090;28;20435;-29
2020/12/31 03:01:28;;;;;;;11.67;7.90;;;2.60;99.90;;;;;;5112262;28;20516;-27
2020/12/31 03:03:55;;;;;;;11.63;9.40;;;2.50;99.90;;;;;;5111532;28;20443;-29
2020/12/31 03:06:22;;;;;;;9.50;8.60;;;2.40;99.90;;;;;;5111904;28;20478;-29
2020/12/31 03:08:48;;;;;;;10.60;8.90;;;2.40;99.90;;;;;;5112337;28;20450;-28
2020/12/31 03:11:19;;;;;;;9.90;8.87;;;2.40;99.90;;;;;;5111641;28;21144;-30
2020/12/31 03:13:47;;;;;;;10.53;8.47;;;2.30;99.90;;;;;;5112124;28;20471;-27
2020/12/31 03:16:13;;;;;;;8.97;8.03;;;2.20;99.90;;;;;;5112282;28;20439;-29
2020/12/31 03:18:40;;;;;;;9.80;7.50;;;2.20;99.90;;;;;;5113182;28;20443;-29
2020/12/31 03:21:07;;;;;;;9.10;7.70;;;2.20;99.90;;;;;;5112790;28;20546;-27
2020/12/31 03:23:33;;;;;;;7.87;7.17;;;2.10;99.90;;;;;;5113272;28;20439;-29
2020/12/31 03:26:00;;;;;;;15.33;11.67;;;2.10;99.90;;;;;;5112589;28;20455;-29
2020/12/31 03:28:26;;;;;;;14.73;10.83;;;2.00;99.90;;;;;;5112705;28;20473;-29
2020/12/31 03:30:54;;;;;;;15.60;10.53;;;2.00;99.90;;;;;;5111783;28;20439;-29
2020/12/31 03:33:20;;;;;;;13.47;11.00;;;2.00;99.90;;;;;;5111534;28;20475;-28
2020/12/31 03:35:48;;;;;;;19.63;13.57;;;2.00;99.90;;;;;;5110932;28;20445;-29
2020/12/31 03:38:17;;;;;;;24.30;15.30;;;1.90;99.90;;;;;;5111270;28;20741;-28
2020/12/31 03:40:44;;;;;;;16.00;12.13;;;1.90;99.90;;;;;;5110804;28;20447;-28
2020/12/31 03:43:11;;;;;;;11.50;10.30;;;1.80;99.90;;;;;;5112356;28;20551;-29
2020/12/31 03:45:38;;;;;;;11.10;9.23;;;1.80;99.90;;;;;;5114644;28;20860;-28
2020/12/31 03:48:06;;;;;;;14.23;12.00;;;1.80;99.90;;;;;;5115844;28;20507;-28
2020/12/31 03:50:33;;;;;;;13.23;11.13;;;1.90;99.90;;;;;;5114839;28;20564;-29
2020/12/31 03:52:59;;;;;;;12.40;10.03;;;1.90;99.90;;;;;;5116104;28;20431;-28
2020/12/31 03:55:26;;;;;;;9.50;8.50;;;2.10;99.90;;;;;;5115549;28;20876;-29
2020/12/31 03:57:53;;;;;;;9.53;7.80;;;2.20;99.90;;;;;;5115217;28;20484;-31
2020/12/31 04:00:19;;;;;;;8.60;7.27;;;2.30;99.90;;;;;;5114857;28;20438;-28
2020/12/31 04:02:46;;;;;;;9.57;8.50;;;2.30;99.90;;;;;;5115427;28;20882;-29
2020/12/31 04:05:13;;;;;;;10.60;8.80;;;2.30;99.90;;;;;;5114352;28;20438;-29
2020/12/31 04:07:40;;;;;;;9.40;8.03;;;2.40;99.90;;;;;;5115493;28;20438;-29
2020/12/31 04:10:07;;;;;;;10.63;8.17;;;2.40;99.90;;;;;;5115134;28;20534;-28
2020/12/31 04:12:34;;;;;;;10.57;8.50;;;2.50;99.90;;;;;;5114679;28;20437;-28
2020/12/31 04:15:01;;;;;;;9.03;7.83;;;2.50;99.90;;;;;;5115046;28;20772;-28
2020/12/31 04:17:28;;;;;;;11.83;10.40;;;2.50;99.90;;;;;;5115120;28;20442;-30
2020/12/31 04:19:54;;;;;;;9.30;8.40;;;2.50;99.90;;;;;;5113747;28;20916;-29
2020/12/31 04:22:21;;;;;;;10.03;8.93;;;2.40;99.90;;;;;;5115394;28;20879;-30
2020/12/31 04:24:48;;;;;;;10.07;8.70;;;2.30;99.90;;;;;;5114239;28;20482;-28
2020/12/31 04:27:15;;;;;;;9.83;7.93;;;2.20;99.90;;;;;;5114808;28;20500;-29
2020/12/31 04:29:41;;;;;;;9.60;8.40;;;2.10;99.90;;;;;;5114632;28;20435;-28
2020/12/31 04:32:08;;;;;;;11.23;9.20;;;2.10;99.90;;;;;;5115255;28;20439;-29
2020/12/31 04:34:34;;;;;;;9.37;8.20;;;2.00;99.90;;;;;;5114840;28;20554;-29
2020/12/31 04:37:03;;;;;;;8.73;7.60;;;1.90;99.90;;;;;;5114100;28;20432;-29
2020/12/31 04:39:31;;;;;;;14.83;9.33;;;1.90;99.90;;;;;;5114230;28;20524;-28
2020/12/31 04:41:57;;;;;;;10.27;9.13;;;1.80;99.90;;;;;;5114479;28;20540;-28
2020/12/31 04:44:25;;;;;;;10.10;8.80;;;1.80;99.90;;;;;;5115316;28;20471;-29
2020/12/31 04:46:55;;;;;;;7.67;6.97;;;1.80;99.90;;;;;;5114100;28;20488;-31
2020/12/31 04:49:26;;;;;;;10.80;9.27;;;1.80;99.90;;;;;;5113863;28;20478;-28
2020/12/31 04:51:54;;;;;;;11.23;8.90;;;1.80;99.90;;;;;;5114124;28;20441;-28
2020/12/31 04:54:21;;;;;;;11.20;8.73;;;1.80;99.90;;;;;;5114151;28;20978;-28
2020/12/31 04:56:49;;;;;;;12.87;9.97;;;1.80;99.90;;;;;;5113203;28;20443;-29
2020/12/31 04:59:15;;;;;;;11.97;10.20;;;1.80;99.90;;;;;;5114290;28;20929;-28
2020/12/31 05:01:44;;;;;;;9.83;8.83;;;1.80;99.90;;;;;;5113420;28;20443;-29
2020/12/31 05:04:12;;;;;;;9.73;8.57;;;1.70;99.90;;;;;;5113385;28;21151;-28
2020/12/31 05:06:40;;;;;;;8.50;7.70;;;1.70;99.90;;;;;;5113469;28;20754;-29
2020/12/31 05:09:17;;;;;;;8.60;7.80;;;1.70;99.90;;;;;;5114657;28;20752;-27
2020/12/31 05:11:47;;;;;;;7.97;7.07;;;1.60;99.90;;;;;;5114280;28;20435;-28
2020/12/31 05:14:26;;;;;;;9.10;7.93;;;1.60;99.90;;;;;;5113477;28;20899;-29
2020/12/31 05:16:53;;;;;;;8.53;7.63;;;1.60;99.90;;;;;;5113569;28;20931;-29
2020/12/31 05:19:21;;;;;;;8.70;7.03;;;1.50;99.90;;;;;;5113690;28;20442;-29
2020/12/31 05:21:48;;;;;;;11.87;8.20;;;1.50;99.90;;;;;;5112792;28;20443;-28
2020/12/31 05:24:15;;;;;;;11.00;9.57;;;1.40;99.90;;;;;;5113693;28;20879;-28
2020/12/31 05:26:42;;;;;;;8.90;8.00;;;1.40;99.90;;;;;;5113244;28;20445;-29
2020/12/31 05:29:08;;;;;;;13.10;11.70;;;1.40;99.90;;;;;;5113135;28;20434;-29
2020/12/31 05:31:55;;;;;;;14.37;10.40;;;1.40;99.90;;;;;;5113548;28;20436;-29
2020/12/31 05:34:28;;;;;;;12.13;10.07;;;1.40;99.90;;;;;;5112296;28;20458;-28
2020/12/31 05:36:55;;;;;;;13.23;9.50;;;1.40;99.90;;;;;;5112036;28;20473;-29
2020/12/31 05:39:22;;;;;;;8.90;7.77;;;1.40;99.90;;;;;;5112436;28;20535;-27
2020/12/31 05:41:48;;;;;;;9.27;7.80;;;1.40;99.90;;;;;;5112832;28;20856;-29
2020/12/31 05:44:15;;;;;;;8.40;7.60;;;1.40;99.90;;;;;;5113869;28;20771;-28
2020/12/31 05:46:41;;;;;;;8.43;7.63;;;1.40;99.90;;;;;;5113866;28;20435;-29
2020/12/31 05:49:10;;;;;;;10.10;7.80;;;1.40;99.90;;;;;;5112069;28;20481;-30
2020/12/31 05:51:38;;;;;;;8.30;7.37;;;1.40;99.90;;;;;;5112509;28;20485;-28
2020/12/31 05:54:06;;;;;;;8.83;7.93;;;1.40;99.90;;;;;;5113027;28;20544;-29
2020/12/31 05:56:34;;;;;;;8.90;8.00;;;1.30;99.90;;;;;;5113590;28;20546;-28
2020/12/31 05:59:07;;;;;;;10.20;8.37;;;1.30;99.90;;;;;;5112808;28;20476;-28
2020/12/31 06:01:38;;;;;;;10.53;8.40;;;1.20;99.90;;;;;;5111506;28;20607;-27
2020/12/31 06:04:19;;;;;;;11.17;9.20;;;1.20;99.90;;;;;;5111146;28;21119;-29
2020/12/31 06:07:10;;;;;;;9.17;7.67;;;1.10;99.90;;;;;;5108529;28;20512;-29
2020/12/31 06:13:01;;;;;;;12.20;8.23;;;1.00;99.90;;;;;;5111484;28;20494;-30
2020/12/31 06:15:30;;;;;;;10.77;7.93;;;1.00;99.90;;;;;;5112141;28;20463;-29
2020/12/31 06:17:58;;;;;;;10.60;8.43;;;1.00;99.90;;;;;;5110691;28;20435;-29
2020/12/31 06:20:26;;;;;;;14.30;9.50;;;1.00;99.90;;;;;;5109752;28;20435;-28
2020/12/31 06:23:03;;;;;;;8.77;7.87;;;1.00;99.90;;;;;;5111789;28;20533;-28
2020/12/31 06:25:38;;;;;;;8.43;7.63;;;1.00;99.90;;;;;;5111925;28;20461;-28
2020/12/31 06:28:10;;;;;;;10.67;9.57;;;1.00;99.90;;;;;;5111484;28;20485;-29
2020/12/31 06:30:38;;;;;;;11.75;9.60;;;0.90;99.90;;;;;;5112192;28;20474;-29
2020/12/31 06:33:17;;;;;;;11.30;8.60;;;0.90;99.90;;;;;;5111412;28;20198;-28
2020/12/31 06:35:49;;;;;;;10.10;8.10;;;0.90;99.90;;;;;;5111353;28;20559;-28
2020/12/31 06:38:27;;;;;;;9.67;8.40;;;0.80;99.90;;;;;;5109656;28;20439;-30
2020/12/31 06:40:53;;;;;;;9.43;8.43;;;0.80;99.90;;;;;;5110148;28;20489;-30
2020/12/31 06:43:30;;;;;;;14.67;9.23;;;0.80;99.90;;;;;;5110298;28;20441;-28
2020/12/31 06:45:57;;;;;;;9.00;7.70;;;0.80;99.90;;;;;;5110391;28;20518;-29
2020/12/31 06:48:37;;;;;;;9.50;8.60;;;0.80;99.90;;;;;;5110977;28;20753;-29
2020/12/31 06:51:06;;;;;;;8.83;7.93;;;0.80;99.90;;;;;;5110178;28;20529;-28
2020/12/31 06:53:36;;;;;;;9.60;8.43;;;0.80;99.90;;;;;;5110054;28;20782;-28
2020/12/31 06:56:04;;;;;;;10.23;7.40;;;0.80;99.90;;;;;;5110520;28;20512;-28
2020/12/31 06:58:32;;;;;;;10.10;8.27;;;0.80;99.90;;;;;;5110520;28;20430;-28
2020/12/31 07:00:59;;;;;;;9.00;8.10;;;0.80;99.90;;;;;;5110964;28;20446;-28
2020/12/31 07:03:46;;;;;;;10.30;9.07;;;0.90;99.90;;;;;;5110092;28;20463;-29
2020/12/31 07:06:32;;;;;;;9.80;8.90;;;0.90;99.90;;;;;;5109708;28;20496;-29
2020/12/31 07:09:01;;;;;;;9.37;8.30;;;0.90;99.90;;;;;;5109012;28;20559;-29
2020/12/31 07:11:33;;;;;;;8.63;7.47;;;1.00;99.90;;;;;;5109916;28;20725;-28
2020/12/31 07:14:01;;;;;;;10.20;8.90;;;1.00;99.90;;;;;;5111044;28;20206;-28
2020/12/31 07:16:45;;;;;;;9.60;8.67;;;1.00;99.90;;;;;;5108648;28;20725;-28
2020/12/31 07:19:12;;;;;;;12.93;8.70;;;0.90;99.90;;;;;;5111437;28;21002;-28
2020/12/31 07:21:40;;;;;;;13.17;8.30;;;0.90;99.90;;;;;;5112942;28;20747;-28
2020/12/31 07:24:26;;;;;;;9.67;8.50;;;0.90;99.90;;;;;;5114331;28;20450;-29
2020/12/31 07:26:56;;;;;;;9.38;8.02;;;1.00;99.90;;;;;;5115359;28;20459;-29
2020/12/31 07:29:40;;;;;;;9.55;8.20;;;0.90;99.90;;;;;;5113836;28;20183;-29
2020/12/31 07:32:07;;;;;;;12.33;8.73;;;1.00;99.90;;;;;;5109588;28;20233;-28
2020/12/31 07:35:03;;;;;;;10.73;9.07;;;1.00;99.90;;;;;;5112142;28;20539;-28
2020/12/31 07:40:59;;;;;;;10.77;9.23;;;1.00;99.90;;;;;;5112736;28;20449;-27
2020/12/31 07:43:27;;;;;;;16.10;13.03;;;1.00;99.90;;;;;;5113350;28;20210;-27
2020/12/31 07:45:56;;;;;;;17.00;11.53;;;1.10;99.90;;;;;;5112333;28;20641;-26
2020/12/31 07:48:24;;;;;;;12.60;10.13;;;1.10;99.90;;;;;;5112544;28;21325;-27
2020/12/31 07:50:54;;;;;;;14.00;10.60;;;1.10;99.90;;;;;;5111080;28;20446;-26
2020/12/31 07:53:21;;;;;;;13.67;9.30;;;1.00;99.90;;;;;;5113475;28;20469;-26
2020/12/31 07:55:49;;;;;;;13.70;9.53;;;1.00;99.90;;;;;;5111194;28;20498;-26
2020/12/31 07:58:18;;;;;;;11.73;10.30;;;1.10;99.90;;;;;;5112028;28;20477;-28
2020/12/31 08:00:44;;;;;;;12.20;10.40;;;1.20;99.90;;;;;;5106674;28;20436;-27
2020/12/31 08:03:11;;;;;;;15.20;10.40;;;1.00;99.90;;;;;;5091692;28;21107;-27
2020/12/31 08:05:38;;;;;;;15.10;10.50;;;1.00;99.90;;;;;;5090839;28;20538;-26
2020/12/31 08:08:05;;;;;;;15.80;10.93;;;1.00;99.90;;;;;;5090820;28;20436;-27
2020/12/31 08:10:32;;;;;;;14.17;10.17;;;1.10;99.90;;;;;;5091966;28;20455;-28
2020/12/31 08:13:00;;;;;;;15.87;11.60;;;1.30;99.90;;;;;;5092194;28;20806;-27
2020/12/31 08:15:28;;;;;;;15.47;11.33;;;1.50;99.90;;;;;;5091923;28;20500;-27
2020/12/31 08:17:56;;;;;;;13.80;9.77;;;1.60;99.90;;;;;;5090593;28;20856;-26
2020/12/31 08:20:24;;;;;;;22.90;18.60;;;1.80;99.90;;;;;;5090266;28;20428;-27
2020/12/31 08:22:52;;;;;;;16.83;11.47;;;1.90;99.90;;;;;;5102382;28;20475;-28
2020/12/31 08:25:27;;;;;;;15.80;11.53;;;2.10;99.90;;;;;;5098150;28;21066;-27
2020/12/31 08:27:56;;;;;;;33.00;26.90;;;2.20;99.90;;;;;;5099995;28;20434;-27
2020/12/31 08:30:23;;;;;;;17.50;13.47;;;2.40;99.90;;;;;;5097229;28;20440;-30
2020/12/31 08:32:53;;;;;;;15.77;11.40;;;2.50;99.90;;;;;;5099356;28;20933;-27
2020/12/31 08:35:22;;;;;;;15.00;10.50;;;2.60;99.90;;;;;;5099260;28;20473;-28
2020/12/31 08:38:02;;;;;;;12.80;10.73;;;2.50;99.90;;;;;;5101224;28;20451;-29
2020/12/31 08:40:31;;;;;;;16.70;13.27;;;2.60;99.90;;;;;;5101921;28;20501;-28
2020/12/31 08:42:58;;;;;;;14.47;10.80;;;2.70;99.90;;;;;;5102512;28;20436;-30
2020/12/31 08:45:28;;;;;;;11.23;10.03;;;2.80;99.90;;;;;;5099376;28;20435;-29
2020/12/31 08:48:16;;;;;;;12.70;9.90;;;3.00;99.90;;;;;;5097096;28;20452;-29
2020/12/31 08:50:58;;;;;;;11.97;10.60;;;2.90;99.90;;;;;;5097084;28;20439;-28
2020/12/31 08:53:25;;;;;;;13.03;10.33;;;3.00;99.90;;;;;;5101042;28;20439;-29
2020/12/31 08:55:51;;;;;;;13.50;11.80;;;3.20;99.90;;;;;;5109077;28;20914;-28
2020/12/31 08:58:18;;;;;;;17.10;11.97;;;3.40;99.90;;;;;;5110432;28;20518;-28
2020/12/31 09:00:45;;;;;;;16.10;12.07;;;3.60;99.90;;;;;;5101409;27;20455;-29
2020/12/31 09:03:19;;;;;;;18.20;13.77;;;3.80;99.90;;;;;;5104841;28;20443;-29
2020/12/31 09:05:56;;;;;;;24.23;14.07;;;3.90;99.90;;;;;;5110867;28;20884;-29
2020/12/31 09:08:22;;;;;;;20.17;16.50;;;4.20;99.90;;;;;;5109846;28;20439;-27
2020/12/31 09:10:58;;;;;;;21.10;16.17;;;4.40;99.90;;;;;;5108885;28;20549;-28
2020/12/31 09:13:25;;;;;;;19.60;15.87;;;4.30;99.90;;;;;;5108221;28;20859;-28
2020/12/31 09:16:07;;;;;;;20.07;13.53;;;4.50;99.90;;;;;;5108328;28;20470;-30
2020/12/31 09:18:34;;;;;;;15.60;12.63;;;4.90;99.90;;;;;;5109508;28;20486;-30
2020/12/31 09:21:01;;;;;;;13.93;11.00;;;5.20;99.90;;;;;;5108944;27;20520;-28
2020/12/31 09:23:29;;;;;;;12.70;10.13;;;5.30;99.90;;;;;;5108887;28;20431;-29
2020/12/31 09:25:56;;;;;;;12.10;9.97;;;5.50;99.90;;;;;;5109840;28;20459;-28
2020/12/31 09:28:24;;;;;;;11.90;9.87;;;5.60;99.90;;;;;;5109289;28;20546;-29
2020/12/31 09:30:51;;;;;;;12.90;11.10;;;5.70;99.90;;;;;;5108842;28;20439;-29
2020/12/31 09:33:20;;;;;;;17.60;11.57;;;5.70;99.90;;;;;;5108109;28;20549;-30
2020/12/31 09:35:47;;;;;;;12.93;11.00;;;5.80;99.90;;;;;;5108608;28;20549;-27
2020/12/31 09:38:16;;;;;;;12.07;9.33;;;5.80;99.90;;;;;;5102949;28;20855;-28
2020/12/31 09:40:42;;;;;;;9.70;8.80;;;5.80;99.90;;;;;;5103402;28;20467;-29
2020/12/31 09:43:09;;;;;;;9.90;8.80;;;5.80;99.90;;;;;;5103670;28;20477;-30
2020/12/31 09:45:38;;;;;;;12.00;10.00;;;5.90;99.90;;;;;;5104487;28;20592;-28
2020/12/31 09:48:06;;;;;;;12.77;10.53;;;6.00;99.90;;;;;;5104750;28;20464;-27
2020/12/31 09:50:33;;;;;;;10.20;9.07;;;6.10;99.90;;;;;;5102080;28;20664;-27
2020/12/31 09:53:01;;;;;;;10.27;9.00;;;6.10;99.90;;;;;;5102910;28;20431;-27
2020/12/31 09:55:28;;;;;;;9.63;8.47;;;6.20;99.90;;;;;;5102074;28;21137;-26
2020/12/31 09:57:54;;;;;;;10.03;8.93;;;6.20;99.90;;;;;;5104454;27;20462;-27
2020/12/31 10:00:21;;;;;;;10.40;9.40;;;6.20;99.90;;;;;;5103590;28;20543;-28
2020/12/31 10:02:48;;;;;;;9.43;8.40;;;6.30;99.90;;;;;;5102281;28;20446;-28
2020/12/31 10:05:14;;;;;;;8.17;7.33;;;6.30;99.90;;;;;;5102554;28;20496;-27
2020/12/31 10:07:42;;;;;;;9.77;8.83;;;6.30;99.90;;;;;;5103515;28;20431;-26
2020/12/31 10:10:09;;;;;;;10.57;9.40;;;6.40;99.90;;;;;;5103611;28;20975;-27
2020/12/31 10:12:36;;;;;;;9.40;8.50;;;6.50;99.90;;;;;;5103076;28;20779;-28
2020/12/31 10:15:03;;;;;;;9.57;8.67;;;6.50;99.90;;;;;;5101709;28;20888;-27
2020/12/31 10:17:29;;;;;;;9.00;8.13;;;6.50;99.90;;;;;;5104257;28;20569;-28
2020/12/31 10:19:57;;;;;;;8.70;7.90;;;6.60;99.90;;;;;;5100799;28;20793;-28
2020/12/31 10:22:24;;;;;;;8.87;7.97;;;6.50;99.90;;;;;;5102495;28;20665;-26
2020/12/31 10:24:51;;;;;;;7.90;7.20;;;6.40;99.90;;;;;;5103790;28;20439;-27
2020/12/31 10:27:19;;;;;;;8.03;7.23;;;6.50;99.90;;;;;;5101819;28;20759;-29
2020/12/31 10:29:45;;;;;;;8.10;7.20;;;6.50;99.90;;;;;;5105290;28;20725;-27
2020/12/31 10:32:12;;;;;;;9.07;8.27;;;6.60;99.90;;;;;;5102056;28;21039;-26
2020/12/31 10:34:38;;;;;;;6.73;6.13;;;6.70;99.90;;;;;;5102054;28;20754;-30
2020/12/31 10:37:05;;;;;;;8.47;7.67;;;6.70;99.90;;;;;;5103693;28;21083;-28
2020/12/31 10:39:31;;;;;;;12.40;9.00;;;6.80;99.90;;;;;;5103346;28;20458;-28
2020/12/31 10:41:58;;;;;;;8.70;7.90;;;6.90;99.90;;;;;;5103877;28;20431;-28
2020/12/31 10:44:26;;;;;;;9.87;8.87;;;6.80;99.90;;;;;;5104126;28;20864;-28
2020/12/31 10:46:54;;;;;;;9.30;8.37;;;6.80;99.90;;;;;;5104272;28;20718;-28
2020/12/31 10:49:23;;;;;;;10.37;8.70;;;6.90;99.90;;;;;;5104324;28;20510;-26
2020/12/31 10:51:50;;;;;;;8.47;7.67;;;7.00;99.90;;;;;;5104734;28;20504;-26
2020/12/31 10:54:16;;;;;;;8.60;7.43;;;7.10;99.90;;;;;;5104426;28;20435;-27
2020/12/31 10:56:43;;;;;;;7.97;7.23;;;7.10;99.90;;;;;;5104450;28;20619;-27
2020/12/31 10:59:10;;;;;;;8.87;8.03;;;7.00;99.90;;;;;;5103754;28;20491;-26
2020/12/31 11:01:37;;;;;;;8.37;7.57;;;6.90;99.90;;;;;;5103323;28;20446;-26
2020/12/31 11:04:04;;;;;;;7.17;6.53;;;6.90;99.90;;;;;;5100058;28;20803;-26
2020/12/31 11:06:30;;;;;;;8.80;7.97;;;6.90;99.90;;;;;;5101300;28;20453;-26
2020/12/31 11:08:58;;;;;;;7.20;6.50;;;7.00;99.90;;;;;;5104903;28;20776;-26
2020/12/31 11:11:26;;;;;;;7.70;7.00;;;7.10;99.90;;;;;;5102330;28;20439;-27
2020/12/31 11:13:54;;;;;;;8.93;7.90;;;7.20;99.90;;;;;;5104295;28;20450;-26
2020/12/31 11:16:21;;;;;;;8.40;7.70;;;7.20;99.90;;;;;;5108774;28;20478;-27
2020/12/31 11:18:49;;;;;;;9.60;8.60;;;7.30;99.90;;;;;;5107623;28;20706;-29
2020/12/31 11:21:18;;;;;;;8.50;7.70;;;7.30;99.90;;;;;;5104062;28;20443;-26
2020/12/31 11:23:45;;;;;;;8.47;7.60;;;7.30;99.90;;;;;;5104781;28;20666;-26
2020/12/31 11:26:12;;;;;;;10.70;8.50;;;7.40;99.90;;;;;;5102800;28;20851;-26
2020/12/31 11:28:39;;;;;;;9.00;8.17;;;7.50;99.90;;;;;;5100536;28;20831;-26
2020/12/31 11:31:06;;;;;;;8.40;7.70;;;7.40;99.90;;;;;;5100514;28;20451;-27
2020/12/31 11:33:33;;;;;;;8.17;7.57;;;7.30;99.90;;;;;;5101488;28;20582;-26
2020/12/31 11:36:00;;;;;;;7.43;6.73;;;7.30;99.90;;;;;;5099763;28;20459;-26
2020/12/31 11:38:27;;;;;;;8.00;7.30;;;7.20;99.90;;;;;;5101798;28;20937;-26
2020/12/31 11:40:54;;;;;;;10.87;8.00;;;7.20;99.90;;;;;;5101765;28;20560;-26
2020/12/31 11:43:20;;;;;;;8.40;7.60;;;7.00;99.90;;;;;;5101810;28;21146;-26
2020/12/31 11:45:47;;;;;;;8.33;7.53;;;7.00;99.90;;;;;;5102575;28;20448;-26
2020/12/31 11:48:14;;;;;;;9.20;8.27;;;7.00;99.90;;;;;;5104603;28;20450;-26
2020/12/31 11:50:40;;;;;;;8.27;7.43;;;7.00;99.90;;;;;;5101449;28;20491;-27
2020/12/31 11:53:07;;;;;;;8.83;8.07;;;6.90;99.90;;;;;;5104429;28;20435;-27
2020/12/31 11:55:34;;;;;;;8.30;7.60;;;6.80;99.90;;;;;;5102404;28;20916;-27
2020/12/31 11:58:01;;;;;;;8.20;7.40;;;6.70;99.90;;;;;;5103019;28;20435;-26
2020/12/31 12:00:27;;;;;;;8.73;7.97;;;6.70;99.90;;;;;;5103289;28;20493;-27
2020/12/31 12:02:54;;;;;;;10.57;7.70;;;6.70;99.90;;;;;;5101806;28;20534;-26
2020/12/31 12:05:20;;;;;;;8.10;7.30;;;6.70;99.90;;;;;;5105129;28;20431;-26
2020/12/31 12:07:47;;;;;;;9.37;8.37;;;6.70;99.90;;;;;;5107403;28;20427;-26
2020/12/31 12:10:14;;;;;;;11.63;7.77;;;6.70;99.90;;;;;;5107925;28;20516;-26
2020/12/31 12:12:41;;;;;;;8.60;7.80;;;6.80;99.90;;;;;;5108408;28;20759;-26
2020/12/31 12:15:08;;;;;;;11.30;10.00;;;6.70;99.90;;;;;;5107368;28;20501;-26
2020/12/31 12:17:35;;;;;;;14.03;9.80;;;6.70;99.90;;;;;;5108312;28;20577;-26
2020/12/31 12:20:03;;;;;;;26.90;19.93;;;6.60;99.90;;;;;;5107416;28;20443;-26
2020/12/31 12:22:30;;;;;;;12.90;10.37;;;6.60;99.90;;;;;;5107400;28;20501;-26
2020/12/31 12:24:56;;;;;;;8.73;7.80;;;6.70;99.90;;;;;;5109500;28;20446;-26
2020/12/31 12:27:24;;;;;;;9.73;8.73;;;6.80;99.90;;;;;;5106649;28;20578;-26
2020/12/31 12:29:51;;;;;;;10.03;8.03;;;6.90;99.90;;;;;;5104813;28;20515;-26
2020/12/31 12:32:17;;;;;;;9.63;8.73;;;6.90;99.90;;;;;;5107831;28;20609;-27
2020/12/31 12:34:44;;;;;;;9.40;8.40;;;7.00;99.90;;;;;;5107056;28;20459;-27
2020/12/31 12:37:11;;;;;;;9.80;8.47;;;7.00;99.90;;;;;;5107074;28;20528;-26
2020/12/31 12:39:37;;;;;;;10.33;9.10;;;7.00;99.90;;;;;;5107607;28;20470;-26
2020/12/31 12:42:04;;;;;;;9.50;8.50;;;7.10;99.90;;;;;;5105981;28;20931;-26
2020/12/31 12:44:32;;;;;;;15.03;9.47;;;7.20;99.90;;;;;;5107675;28;20523;-26
2020/12/31 12:46:58;;;;;;;12.10;10.50;;;7.20;99.90;;;;;;5107968;28;20452;-26
2020/12/31 12:49:25;;;;;;;25.03;14.63;;;7.20;99.90;;;;;;5108326;28;20485;-26
2020/12/31 12:51:51;;;;;;;15.50;12.77;;;7.20;99.90;;;;;;5105998;28;20526;-25
2020/12/31 12:54:18;;;;;;;11.63;10.30;;;7.20;99.90;;;;;;5106764;28;20466;-26
2020/12/31 12:56:50;;;;;;;12.80;10.63;;;7.10;99.90;;;;;;5106776;28;20454;-28
2020/12/31 12:59:17;;;;;;;13.00;10.60;;;7.00;99.90;;;;;;5106518;28;20471;-26
2020/12/31 13:01:45;;;;;;;10.97;9.87;;;7.10;99.90;;;;;;5107246;28;20894;-26
2020/12/31 13:04:11;;;;;;;10.43;9.33;;;7.00;99.90;;;;;;5107635;28;20443;-26